Latest Weather Observations for Campania

IDT60901

Issued at 9:11 pm EDT Monday 17 December 2018 (issued every 10 minutes, with the page automatically refreshed every 10 minutes)

About weather observations | Map of Hobart area stations | Latest observations for Hobart area | Other Formats
Station Details ID: 094212 Name: CAMPANIA (KINCORA) Lat: -42.69 Lon: 147.43 Height: 45.0 m
Data from the previous 72 hours. | See also: Recent months at Campania
Date/Time
EDT
Temp
°C
App
Temp
°C
Dew
Point
°C
Rel
Hum
%
Delta-T
°C
Wind Press
QNH
hPa
Press
MSL
hPa
Rain since
9am
mm
Dir  Spd
km/h
Gust
km/h
Spd
kts
Gust
kts
17/09:00pm 15.4 12.9 13.6 89 1.0 SSE 19 26 10 14 - - 0.4
17/08:30pm 15.5 12.7 13.3 87 1.2 SSE 20 30 11 16 - - 0.4
17/08:00pm 15.8 12.7 13.5 86 1.3 SSE 22 33 12 18 - - 0.4
17/07:30pm 16.2 12.7 13.5 84 1.5 S 24 33 13 18 - - 0.4
17/07:00pm 16.4 12.9 13.5 83 1.6 S 24 33 13 18 - - 0.4
17/06:30pm 16.9 13.2 13.8 82 1.8 S 26 35 14 19 - - 0.4
17/06:00pm 17.6 14.0 14.1 80 2.0 SSE 26 35 14 19 - - 0.4
17/05:30pm 18.0 15.6 14.5 80 2.0 SSE 20 32 11 17 - - 0.4
17/05:00pm 19.2 15.0 14.7 75 2.6 S 30 41 16 22 - - 0.4
17/04:30pm 18.6 14.0 14.7 78 2.3 S 32 43 17 23 - - 0.4
17/04:00pm 20.4 16.5 15.6 74 2.9 S 30 43 16 23 - - 0.4
17/03:30pm 19.0 14.8 14.7 76 2.5 S 30 41 16 22 - - 0.4
17/03:00pm 19.7 15.5 15.6 77 2.4 S 32 43 17 23 - - 0.4
17/02:30pm 20.8 16.8 16.2 75 2.8 S 32 43 17 23 - - 0.2
17/02:00pm 20.7 18.0 16.7 78 2.4 S 26 35 14 19 - - 0.2
17/01:30pm 22.0 20.9 17.4 75 2.8 SSE 19 24 10 13 - - 0.2
17/01:00pm 22.1 21.1 16.6 71 3.4 W 17 32 9 17 - - 0.2
17/12:30pm 22.0 21.1 16.9 73 3.1 W 17 24 9 13 - - 0.2
17/12:00pm 21.4 19.9 16.8 75 2.8 WNW 20 32 11 17 - - 0.2
17/11:30am 20.4 20.5 16.6 79 2.3 WNW 11 20 6 11 - - 0.2
17/11:00am 19.7 18.3 16.9 84 1.7 WNW 20 35 11 19 - - 0.2
17/10:30am 19.5 18.5 16.5 83 1.8 WNW 17 35 9 19 - - 0.2
17/10:00am 19.5 18.9 16.7 84 1.7 WNW 15 26 8 14 - - 0.2
17/09:30am 19.0 17.6 16.6 86 1.4 WNW 19 28 10 15 - - 0.2
17/09:00am 19.5 18.9 16.7 84 1.7 WNW 15 22 8 12 - - 7.6
17/08:30am 19.9 19.2 16.3 80 2.2 NW 15 22 8 12 - - 7.6
17/08:00am 20.4 20.5 16.4 78 2.4 WNW 11 20 6 11 - - 7.6
17/07:30am 19.0 19.7 17.0 88 1.2 NNE 9 13 5 7 - - 7.6
17/07:00am 17.2 17.0 16.6 96 0.4 NNE 13 17 7 9 - - 7.6
17/06:30am 15.9 - 16.1 - - NNE 11 13 6 7 - - 7.6
17/06:00am 14.5 - 15.1 - - NNE 6 9 3 5 - - 7.6
17/05:30am 14.5 - 14.7 - - N 7 11 4 6 - - 7.6
17/05:00am 14.6 14.2 14.1 97 0.3 NNW 9 13 5 7 - - 7.6
17/04:30am 15.3 15.1 14.8 97 0.3 NNW 9 9 5 5 - - 7.6
17/04:00am 16.2 16.9 15.6 96 0.4 N 6 7 3 4 - - 7.6
17/03:30am 17.4 17.8 15.4 88 1.2 NW 7 11 4 6 - - 7.6
17/03:00am 16.9 16.4 15.9 94 0.6 N 13 17 7 9 - - 7.6
17/02:30am 16.7 18.2 16.7 100 0.0 NNW 4 11 2 6 - - 7.6
17/02:00am 17.2 - 17.4 - - N 7 11 4 6 - - 7.6
17/01:30am 17.5 - 17.7 - - N 11 13 6 7 - - 7.6
17/01:00am 17.9 19.5 17.9 100 0.0 N 6 7 3 4 - - 7.6
17/12:30am 18.1 20.6 18.1 100 0.0 NNE 2 6 1 3 - - 7.6
17/12:00am 17.9 - 18.1 - - CALM 0 0 0 0 - - 7.6
 
Date/Time
EDT
Temp
°C
App
Temp
°C
Dew
Point
°C
Rel
Hum
%
Delta-T
°C
Wind Press
QNH
hPa
Press
MSL
hPa
Rain since
9am
mm
Dir  Spd
km/h
Gust
km/h
Spd
kts
Gust
kts
16/11:30pm 17.9 - 18.1 - - NE 2 7 1 4 - - 7.6
16/11:00pm 18.1 20.2 18.1 100 0.0 ESE 4 9 2 5 - - 7.6
16/10:30pm 18.1 20.9 17.9 99 0.1 CALM 0 6 0 3 - - 7.6
16/10:00pm 18.2 19.8 17.9 98 0.2 NNW 6 9 3 5 - - 7.4
16/09:30pm 18.0 19.7 18.0 100 0.0 NNE 6 7 3 4 - - 7.2
16/09:00pm 18.0 19.7 18.0 100 0.0 NE 6 9 3 5 - - 7.2
16/08:30pm 17.7 18.3 17.7 100 0.0 SSE 11 15 6 8 - - 7.2
16/08:00pm 17.8 - 18.1 - - SSE 9 13 5 7 - - 7.2
16/07:30pm 17.4 - 17.7 - - SSE 13 17 7 9 - - 7.2
16/07:02pm 17.7 - 18.3 - - S 28 46 15 25 - - 7.2
16/07:00pm 17.7 - 18.2 - - SSE 24 46 13 25 - - 7.2
16/06:30pm 20.9 20.4 19.0 89 1.2 S 20 30 11 16 - - 0.0
16/06:23pm 21.3 21.3 19.0 87 1.5 S 17 28 9 15 - - 0.0
16/06:00pm 21.1 16.3 18.5 85 1.6 SSW 41 61 22 33 - - 0.0
16/05:58pm 21.4 16.7 18.6 84 1.8 SSW 41 61 22 33 - - 0.0
16/05:54pm 22.4 19.5 18.8 80 2.3 WSW 32 61 17 33 - - 0.0
16/05:52pm 23.4 21.0 18.3 73 3.2 WSW 28 43 15 23 - - 0.0
16/05:30pm 24.0 25.6 19.9 78 2.6 NW 11 24 6 13 - - 0.0
16/05:00pm 26.9 27.2 18.7 60 5.3 ENE 15 24 8 13 - - 0.0
16/04:30pm 28.3 27.7 18.4 55 6.3 NNE 19 28 10 15 - - 0.0
16/04:00pm 26.8 26.3 17.8 57 5.7 N 17 20 9 11 - - 0.0
16/03:30pm 27.5 26.7 17.9 55 6.1 N 19 24 10 13 - - 0.0
16/03:00pm 27.7 27.1 17.5 53 6.4 N 17 32 9 17 - - 0.0
16/02:30pm 28.4 27.0 17.0 50 7.2 N 20 28 11 15 - - 0.0
16/02:00pm 27.4 25.5 15.1 47 7.5 N 19 35 10 19 - - 0.0
16/01:30pm 27.0 25.2 16.0 51 6.8 N 20 32 11 17 - - 0.0
16/01:00pm 26.7 25.6 16.3 53 6.4 NNE 17 32 9 17 - - 0.0
16/12:30pm 25.9 26.7 18.1 62 4.9 NE 11 20 6 11 - - 0.0
16/12:00pm 25.4 26.6 20.0 72 3.5 NE 13 19 7 10 - - 0.0
16/11:30am 24.3 24.1 17.5 66 4.2 N 15 20 8 11 - - 0.0
16/11:00am 23.8 24.6 18.2 71 3.5 N 11 15 6 8 - - 0.0
16/10:30am 23.6 23.5 17.8 70 3.6 N 15 22 8 12 - - 0.0
16/10:00am 23.0 22.4 18.5 76 2.8 N 19 26 10 14 - - 0.0
16/09:30am 22.4 22.7 18.8 80 2.3 N 15 20 8 11 - - 0.0
16/09:00am 21.1 21.6 19.2 89 1.2 N 15 20 8 11 - - 2.6
16/08:30am 19.5 21.5 19.2 98 0.2 NNW 7 9 4 5 - - 2.6
16/08:00am 18.8 20.5 18.6 99 0.1 NNW 7 11 4 6 - - 2.6
16/07:30am 18.5 - 18.7 - - N 4 7 2 4 - - 2.6
16/07:00am 18.1 - 18.7 - - SSE 6 7 3 4 - - 2.6
16/06:30am 17.8 - 18.4 - - SSE 11 13 6 7 - - 2.6
16/06:00am 17.8 - 18.3 - - S 11 15 6 8 - - 2.6
16/05:30am 18.0 - 18.2 - - S 7 9 4 5 - - 1.8
16/05:00am 18.0 19.1 18.0 100 0.0 SSE 9 13 5 7 - - 0.8
16/04:30am 18.1 19.5 17.9 99 0.1 S 7 9 4 5 - - 0.4
16/04:00am 18.7 20.1 17.7 94 0.6 E 7 9 4 5 - - 0.2
16/03:30am 18.9 19.5 17.6 92 0.8 ENE 11 15 6 8 - - 0.0
16/03:00am 19.1 18.5 17.6 91 0.9 ENE 17 30 9 16 - - 0.0
16/02:30am 18.6 20.5 17.6 94 0.6 ESE 4 13 2 7 - - 0.0
16/02:00am 18.5 20.8 17.7 95 0.5 NE 2 7 1 4 - - 0.0
16/01:30am 18.9 20.0 17.9 94 0.6 E 9 15 5 8 - - 0.0
16/01:00am 18.9 19.7 18.1 95 0.5 E 11 17 6 9 - - 0.0
16/12:30am 18.3 19.0 18.0 98 0.2 ESE 11 15 6 8 - - 0.0
16/12:00am 18.7 19.6 17.5 93 0.7 SSE 9 13 5 7 - - 0.0
 
Date/Time
EDT
Temp
°C
App
Temp
°C
Dew
Point
°C
Rel
Hum
%
Delta-T
°C
Wind Press
QNH
hPa
Press
MSL
hPa
Rain since
9am
mm
Dir  Spd
km/h
Gust
km/h
Spd
kts
Gust
kts
15/11:30pm 18.6 19.5 17.6 94 0.6 S 9 11 5 6 - - 0.0
15/11:00pm 18.5 19.7 17.3 93 0.7 SSE 7 9 4 5 - - 0.0
15/10:30pm 18.3 18.4 17.5 95 0.5 S 13 19 7 10 - - 0.0
15/10:00pm 18.3 18.8 17.5 95 0.5 S 11 15 6 8 - - 0.0
15/09:30pm 18.1 18.7 17.6 97 0.3 SSE 11 13 6 7 - - 0.0
15/09:00pm 18.0 18.1 17.5 97 0.3 S 13 15 7 8 - - 0.0
15/08:30pm 18.5 19.8 17.5 94 0.6 SE 7 9 4 5 - - 0.0
15/08:00pm 18.3 19.5 17.3 94 0.6 ESE 7 9 4 5 - - 0.0
15/07:30pm 18.8 18.4 17.1 90 1.0 ENE 15 20 8 11 - - 0.0
15/07:00pm 19.0 17.8 17.0 88 1.2 NNE 19 28 10 15 - - 0.0
15/06:30pm 19.2 17.8 17.0 87 1.3 NNE 20 30 11 16 - - 0.0
15/06:00pm 19.5 20.6 17.1 86 1.5 ESE 7 15 4 8 - - 0.0
15/05:30pm 19.5 19.8 17.1 86 1.5 SE 11 17 6 9 - - 0.0
15/05:00pm 19.8 19.0 17.0 84 1.7 E 17 22 9 12 - - 0.0
15/04:30pm 19.7 20.0 16.9 84 1.7 ESE 11 17 6 9 - - 0.0
15/04:00pm 19.7 19.5 16.7 83 1.8 E 13 17 7 9 - - 0.0
15/03:30pm 19.7 18.2 16.3 81 2.0 E 19 26 10 14 - - 0.0
15/03:00pm 19.8 19.9 16.4 81 2.0 ENE 11 17 6 9 - - 0.0
15/02:30pm 19.6 19.5 16.1 80 2.1 E 11 17 6 9 - - 0.0
15/02:00pm 19.7 18.2 16.3 81 2.0 ESE 19 30 10 16 - - 0.0
15/01:30pm 18.5 18.0 16.8 90 1.0 ESE 15 28 8 15 - - 0.0
15/01:00pm 17.9 16.3 16.1 89 1.1 NE 19 24 10 13 - - 0.0
15/12:30pm 18.0 17.1 15.8 87 1.3 SE 15 28 8 15 - - 0.0
15/12:00pm 17.7 17.6 16.9 95 0.5 SE 13 17 7 9 - - 0.0
15/11:30am 17.3 17.3 16.3 94 0.6 SE 11 19 6 10 - - 0.0
15/11:00am 17.0 15.7 15.9 93 0.6 SSE 17 20 9 11 - - 0.0
15/10:30am 17.3 16.4 14.9 86 1.4 ESE 13 15 7 8 - - 0.0
15/10:00am 17.2 16.1 14.3 83 1.7 E 13 19 7 10 - - 0.0
15/09:30am 17.4 16.2 14.1 81 1.9 NE 13 20 7 11 - - 0.0
15/09:00am 17.7 16.3 13.4 76 2.4 ENE 13 20 7 11 - - 0.0
15/08:30am 17.9 15.7 13.2 74 2.7 E 17 24 9 13 - - 0.0
15/08:00am 17.7 16.0 13.6 77 2.3 ENE 15 28 8 15 - - 0.0
15/07:30am 17.3 16.4 13.8 80 2.0 E 11 19 6 10 - - 0.0
15/07:00am 16.9 15.4 14.2 84 1.5 E 15 20 8 11 - - 0.0
15/06:30am 16.4 16.1 14.4 88 1.1 SE 9 11 5 6 - - 0.0
15/06:00am 15.8 15.5 14.5 92 0.7 SE 9 17 5 9 - - 0.0
15/05:30am 15.4 15.1 14.4 94 0.6 SSE 9 13 5 7 - - 0.0
15/05:00am 15.0 14.5 14.8 99 0.1 S 11 13 6 7 - - 0.0
15/04:30am 14.9 14.7 14.7 99 0.1 S 9 13 5 7 - - 0.0
15/04:00am 15.5 15.2 14.5 94 0.6 S 9 13 5 7 - - 0.0
15/03:30am 15.6 14.9 14.3 92 0.7 ESE 11 17 6 9 - - 0.0
15/03:00am 16.2 16.1 14.0 87 1.2 ENE 7 11 4 6 - - 0.0
15/02:30am 16.4 16.4 13.7 84 1.5 ESE 6 9 3 5 - - 0.0
15/02:00am 16.3 15.8 13.8 85 1.4 SE 9 13 5 7 - - 0.0
15/01:30am 16.3 15.9 14.1 87 1.3 SE 9 15 5 8 - - 0.0
15/01:00am 16.3 15.9 14.1 87 1.3 SSE 9 13 5 7 - - 0.0
15/12:30am 16.4 16.0 14.1 86 1.3 SE 9 13 5 7 - - 0.0
15/12:00am 16.5 16.5 14.3 87 1.3 ESE 7 11 4 6 - - 0.0
 
Date/Time
EDT
Temp
°C
App
Temp
°C
Dew
Point
°C
Rel
Hum
%
Delta-T
°C
Wind Press
QNH
hPa
Press
MSL
hPa
Rain since
9am
mm
Dir  Spd
km/h
Gust
km/h
Spd
kts
Gust
kts
14/11:30pm 16.6 15.9 14.2 86 1.4 SE 11 13 6 7 - - 0.0
14/11:00pm 16.8 16.5 14.3 85 1.4 SSE 9 13 5 7 - - 0.0
14/10:30pm 16.9 16.6 14.5 86 1.4 SSE 9 13 5 7 - - 0.0
14/10:00pm 17.1 16.4 14.2 83 1.7 E 11 13 6 7 - - 0.0
14/09:30pm 17.3 16.1 14.0 81 1.9 E 13 17 7 9 - - 0.0

Latest Capital City Observations: Canberra | Sydney | Melbourne | Brisbane | Adelaide | Perth | Hobart | Darwin

Other Formats:

Comma delimited format used in spreadsheet applications
http://www.bom.gov.au/fwo/IDT60901/IDT60901.95972.axf

JavaScript Object Notation format (JSON) in row-major order
http://www.bom.gov.au/fwo/IDT60901/IDT60901.95972.json